Time;durP1;ratioP1;P1;durP2;ratioP2;P2;SDS_P1;SDS_P2;PMS_P1;PMS_P2;Temp;Humidity;BMP_temperature;BMP_pressure;BME280_temperature;BME280_humidity;BME280_pressure;Samples;Min_cycle;Max_cycle;Signal;HPM_P1;HPM_P2
2023/04/04 00:01:51;;;;;;;3.42;2.00;;;3.50;97.30;;;;;;5051027;28;20262;-71
2023/04/04 00:04:35;;;;;;;7.70;3.53;;;3.40;96.90;;;;;;5031018;28;20202;-71
2023/04/04 00:07:04;;;;;;;4.82;2.65;;;3.30;97.10;;;;;;5026001;28;20196;-71
2023/04/04 00:09:41;;;;;;;6.07;2.58;;;3.40;97.10;;;;;;5043795;28;20215;-70
2023/04/04 00:12:13;;;;;;;3.85;2.63;;;3.40;97.10;;;;;;5045142;28;20254;-71
2023/04/04 00:14:50;;;;;;;8.65;2.80;;;3.40;97.10;;;;;;5039094;28;20604;-69
2023/04/04 00:17:27;;;;;;;7.00;3.00;;;3.40;97.30;;;;;;5025615;28;20202;-71
2023/04/04 00:20:03;;;;;;;5.13;2.25;;;3.30;97.10;;;;;;5026447;28;20202;-70
2023/04/04 00:22:36;;;;;;;5.70;2.83;;;3.40;97.20;;;;;;5030273;28;20262;-71
2023/04/04 00:25:14;;;;;;;5.65;1.98;;;3.40;97.10;;;;;;5036930;28;20204;-70
2023/04/04 00:27:48;;;;;;;7.35;3.00;;;3.40;96.90;;;;;;5048608;28;20238;-70
2023/04/04 00:30:27;;;;;;;3.25;2.60;;;3.30;97.10;;;;;;5044073;28;20738;-71
2023/04/04 00:32:57;;;;;;;2.20;1.92;;;3.20;97.10;;;;;;5046615;28;20226;-71
2023/04/04 00:35:32;;;;;;;5.47;2.88;;;3.20;97.40;;;;;;5041382;28;20195;-71
2023/04/04 00:38:07;;;;;;;6.20;3.58;;;3.10;97.50;;;;;;5045865;28;20619;-71
2023/04/04 00:40:46;;;;;;;4.32;2.22;;;3.10;97.70;;;;;;5050599;28;20242;-71
2023/04/04 00:43:18;;;;;;;3.58;2.42;;;3.00;97.80;;;;;;5039586;28;20217;-70
2023/04/04 00:46:13;;;;;;;3.50;2.40;;;2.90;97.90;;;;;;5041410;28;20200;-71
2023/04/04 00:48:44;;;;;;;4.30;2.50;;;2.90;98.30;;;;;;5043389;28;20199;-70
2023/04/04 00:51:16;;;;;;;4.25;2.47;;;2.90;98.50;;;;;;5038419;28;20196;-71
2023/04/04 00:53:50;;;;;;;7.30;2.70;;;2.90;98.50;;;;;;5043100;28;20594;-70
2023/04/04 00:56:38;;;;;;;6.07;2.60;;;2.90;98.10;;;;;;5043807;28;20219;-70
2023/04/04 00:59:17;;;;;;;3.50;2.40;;;2.80;98.30;;;;;;5027500;28;20205;-70
2023/04/04 01:01:54;;;;;;;7.78;3.78;;;2.80;98.60;;;;;;5037287;28;20298;-70
2023/04/04 01:04:28;;;;;;;6.45;2.47;;;2.80;98.90;;;;;;5042517;28;20196;-69
2023/04/04 01:06:58;;;;;;;4.03;2.30;;;2.80;98.90;;;;;;5046830;28;20223;-70
2023/04/04 01:09:27;;;;;;;5.70;2.60;;;2.80;98.90;;;;;;5036629;28;20206;-70
2023/04/04 01:12:05;;;;;;;4.00;2.65;;;2.80;99.20;;;;;;5035420;28;20220;-70
2023/04/04 01:14:43;;;;;;;2.92;2.42;;;2.70;99.20;;;;;;5034380;28;20286;-72
2023/04/04 01:17:22;;;;;;;5.43;3.10;;;2.80;99.40;;;;;;5052681;28;20199;-71
2023/04/04 01:20:07;;;;;;;4.68;2.92;;;2.70;99.30;;;;;;5049993;28;20195;-70
2023/04/04 01:22:37;;;;;;;7.10;2.55;;;2.70;99.40;;;;;;5018028;28;20227;-71
2023/04/04 01:25:25;;;;;;;7.03;3.30;;;2.60;99.40;;;;;;5034309;28;20228;-72
2023/04/04 01:28:08;;;;;;;4.97;3.38;;;2.60;99.80;;;;;;5042295;28;20204;-71
2023/04/04 01:30:51;;;;;;;3.95;1.92;;;2.60;99.40;;;;;;5020625;28;20220;-71
2023/04/04 01:33:34;;;;;;;4.80;2.80;;;2.50;99.60;;;;;;5033579;28;20232;-71
2023/04/04 01:36:11;;;;;;;6.20;3.00;;;2.60;99.60;;;;;;5034611;28;20291;-71
2023/04/04 01:38:57;;;;;;;6.30;3.58;;;2.50;99.90;;;;;;5034254;28;20218;-71
2023/04/04 01:41:36;;;;;;;7.60;2.92;;;2.50;99.90;;;;;;5040445;28;20214;-70
2023/04/04 01:44:14;;;;;;;8.93;2.97;;;2.60;99.50;;;;;;5040218;28;20216;-70
2023/04/04 01:46:50;;;;;;;8.82;2.80;;;2.60;99.50;;;;;;5034895;28;20257;-71
2023/04/04 01:49:23;;;;;;;4.20;2.75;;;2.60;99.40;;;;;;5046342;28;20196;-71
2023/04/04 01:51:56;;;;;;;4.72;2.28;;;2.60;99.50;;;;;;5034507;28;20222;-71
2023/04/04 01:54:34;;;;;;;8.95;2.78;;;2.50;99.30;;;;;;5044916;28;20199;-71
2023/04/04 01:57:23;;;;;;;7.72;2.53;;;2.50;99.00;;;;;;5047022;28;20271;-72
2023/04/04 01:59:56;;;;;;;4.50;2.90;;;2.50;98.90;;;;;;5040521;28;20212;-71
2023/04/04 02:02:34;;;;;;;2.70;2.22;;;2.40;98.90;;;;;;5039249;28;20223;-72
2023/04/04 02:05:04;;;;;;;11.38;2.80;;;2.50;99.10;;;;;;5051577;28;20207;-71
2023/04/04 02:08:10;;;;;;;5.45;2.50;;;2.40;98.80;;;;;;5044671;28;20204;-71
2023/04/04 02:10:41;;;;;;;4.80;2.47;;;2.50;98.50;;;;;;5042239;28;20205;-71
2023/04/04 02:13:23;;;;;;;3.90;2.17;;;2.40;98.00;;;;;;5055965;28;20238;-70
2023/04/04 02:15:58;;;;;;;4.63;2.15;;;2.40;98.20;;;;;;5056791;28;20247;-71
2023/04/04 02:21:17;;;;;;;6.50;2.22;;;2.30;98.30;;;;;;5037352;28;20602;-69
2023/04/04 02:24:06;;;;;;;3.40;2.50;;;2.40;98.00;;;;;;5056264;28;20731;-71
2023/04/04 02:26:37;;;;;;;4.03;2.33;;;2.40;97.70;;;;;;5053576;28;20358;-69
2023/04/04 02:29:08;;;;;;;3.25;2.22;;;2.40;97.60;;;;;;5055496;28;20203;-70
2023/04/04 02:32:01;;;;;;;5.13;2.55;;;2.40;97.50;;;;;;5044076;28;20669;-69
2023/04/04 02:34:51;;;;;;;4.88;2.92;;;2.40;97.50;;;;;;5039362;28;20252;-71
2023/04/04 02:37:28;;;;;;;4.45;2.33;;;2.40;97.00;;;;;;5049694;28;20655;-71
2023/04/04 02:40:03;;;;;;;11.20;4.88;;;2.30;97.20;;;;;;5043172;28;20208;-71
2023/04/04 02:42:33;;;;;;;2.60;1.95;;;2.30;97.70;;;;;;5026860;28;20226;-71
2023/04/04 02:45:13;;;;;;;4.35;2.40;;;2.30;97.80;;;;;;5049630;28;20627;-72
2023/04/04 02:47:42;;;;;;;12.40;2.70;;;2.40;97.20;;;;;;5053366;28;20211;-71
2023/04/04 02:50:15;;;;;;;3.78;2.78;;;2.30;97.40;;;;;;5047231;28;20291;-72
2023/04/04 02:52:47;;;;;;;3.65;2.28;;;2.30;97.50;;;;;;5042292;28;20293;-71
2023/04/04 02:55:14;;;;;;;7.50;2.28;;;2.30;97.20;;;;;;5045223;28;20258;-71
2023/04/04 02:57:54;;;;;;;8.10;2.75;;;2.20;97.40;;;;;;5043891;28;20240;-72
2023/04/04 03:00:24;;;;;;;3.25;2.40;;;2.20;97.90;;;;;;5029823;28;20286;-71
2023/04/04 03:03:04;;;;;;;4.22;2.40;;;2.20;97.80;;;;;;5039077;28;20705;-70
2023/04/04 03:05:40;;;;;;;5.18;3.25;;;2.20;97.70;;;;;;5038236;28;20298;-71
2023/04/04 03:08:08;;;;;;;3.35;2.40;;;2.10;97.70;;;;;;5026080;28;20211;-69
2023/04/04 03:10:44;;;;;;;7.55;2.65;;;2.20;98.20;;;;;;5038478;28;20208;-72
2023/04/04 03:13:29;;;;;;;11.65;2.42;;;2.20;97.90;;;;;;5038870;28;20232;-72
2023/04/04 03:16:12;;;;;;;6.35;2.80;;;2.30;97.90;;;;;;5019019;28;20208;-71
2023/04/04 03:18:48;;;;;;;3.60;2.13;;;2.30;97.50;;;;;;5045016;28;20768;-70
2023/04/04 03:21:32;;;;;;;6.93;3.55;;;2.20;97.70;;;;;;5021741;28;20204;-70
2023/04/04 03:24:09;;;;;;;5.38;3.22;;;2.20;97.80;;;;;;5041223;28;20250;-71
2023/04/04 03:26:41;;;;;;;4.05;3.03;;;2.30;97.80;;;;;;5035557;28;20257;-72
2023/04/04 03:29:17;;;;;;;6.72;4.70;;;2.20;97.70;;;;;;5045099;28;20200;-71
2023/04/04 03:31:50;;;;;;;7.90;4.40;;;2.20;97.90;;;;;;5043358;28;20235;-71
2023/04/04 03:34:35;;;;;;;5.88;3.50;;;2.20;97.80;;;;;;5053318;28;20215;-72
2023/04/04 03:37:18;;;;;;;3.60;3.03;;;2.20;97.90;;;;;;5054410;28;20192;-71
2023/04/04 03:40:05;;;;;;;3.67;3.22;;;2.20;97.90;;;;;;5049740;28;20214;-71
2023/04/04 03:42:42;;;;;;;11.13;3.45;;;2.20;98.00;;;;;;5047362;28;20225;-72
2023/04/04 03:45:19;;;;;;;4.88;2.65;;;2.20;98.20;;;;;;5039512;28;20262;-71
2023/04/04 03:47:52;;;;;;;3.40;2.50;;;2.20;98.10;;;;;;5026204;28;20200;-71
2023/04/04 03:50:22;;;;;;;8.60;3.08;;;2.20;97.90;;;;;;5039981;28;20204;-69
2023/04/04 03:52:57;;;;;;;6.20;2.85;;;2.10;98.20;;;;;;5039467;28;20231;-71
2023/04/04 03:55:38;;;;;;;5.32;3.25;;;2.00;98.20;;;;;;5049194;28;20231;-71
2023/04/04 03:58:08;;;;;;;5.05;2.97;;;2.00;98.70;;;;;;5039577;28;20211;-71
2023/04/04 04:00:40;;;;;;;5.82;2.90;;;2.00;98.80;;;;;;5042959;28;20273;-73
2023/04/04 04:03:18;;;;;;;7.72;3.00;;;1.90;98.70;;;;;;5040866;28;20223;-70
2023/04/04 04:05:47;;;;;;;4.25;2.15;;;1.80;98.90;;;;;;5042089;28;20271;-69
2023/04/04 04:08:15;;;;;;;3.80;3.25;;;1.80;99.20;;;;;;5048120;28;20204;-70
2023/04/04 04:10:46;;;;;;;9.05;3.22;;;1.90;99.40;;;;;;5042791;28;20211;-72
2023/04/04 04:13:19;;;;;;;3.88;2.63;;;1.90;99.50;;;;;;5046897;28;20226;-72
2023/04/04 04:15:47;;;;;;;5.18;2.25;;;1.80;99.30;;;;;;5021496;28;20247;-71
2023/04/04 04:18:27;;;;;;;6.82;3.20;;;1.80;99.50;;;;;;5040679;28;20221;-72
2023/04/04 04:21:10;;;;;;;6.20;3.15;;;1.80;99.20;;;;;;5040505;28;20284;-71
2023/04/04 04:23:40;;;;;;;4.82;3.10;;;1.80;99.20;;;;;;5048168;28;20231;-70
2023/04/04 04:26:15;;;;;;;4.40;3.00;;;1.80;99.30;;;;;;5044886;28;20283;-70
2023/04/04 04:28:55;;;;;;;6.95;3.60;;;1.80;99.30;;;;;;5053873;28;20554;-70
2023/04/04 04:31:32;;;;;;;2.40;1.95;;;1.80;99.10;;;;;;5046725;28;20291;-70
2023/04/04 04:34:08;;;;;;;2.92;2.63;;;1.80;99.30;;;;;;5051000;28;20277;-71
2023/04/04 04:36:46;;;;;;;3.65;2.50;;;1.80;99.30;;;;;;5022180;28;20290;-70
2023/04/04 04:39:26;;;;;;;10.60;3.00;;;1.70;99.60;;;;;;5048271;28;20195;-70
2023/04/04 04:42:04;;;;;;;4.35;2.92;;;1.70;99.60;;;;;;5031662;28;20283;-70
2023/04/04 04:44:39;;;;;;;5.95;3.83;;;1.70;99.50;;;;;;5023467;28;20199;-71
2023/04/04 04:47:26;;;;;;;7.18;3.65;;;1.80;99.50;;;;;;5040526;28;20655;-71
2023/04/04 04:50:12;;;;;;;4.72;3.50;;;1.80;99.50;;;;;;5045785;28;20666;-70
2023/04/04 04:52:45;;;;;;;4.43;2.40;;;1.80;99.60;;;;;;5038935;28;20274;-71
2023/04/04 04:55:25;;;;;;;4.50;2.97;;;1.90;99.50;;;;;;5042226;28;20661;-71
2023/04/04 04:58:03;;;;;;;6.38;3.08;;;1.90;99.10;;;;;;5048476;28;20259;-71
2023/04/04 05:00:36;;;;;;;7.72;3.00;;;1.90;99.20;;;;;;5038909;28;20581;-71
2023/04/04 05:03:06;;;;;;;8.05;3.22;;;1.80;99.20;;;;;;5024776;28;20302;-70
2023/04/04 05:05:37;;;;;;;5.85;2.67;;;1.90;99.20;;;;;;5047006;28;20210;-70
2023/04/04 05:08:09;;;;;;;3.80;3.15;;;1.90;99.30;;;;;;5045829;28;20247;-70
2023/04/04 05:10:40;;;;;;;9.40;3.70;;;2.00;99.40;;;;;;5044792;28;20207;-69
2023/04/04 05:13:12;;;;;;;4.68;3.30;;;2.00;99.70;;;;;;5037248;28;20694;-73
2023/04/04 05:15:49;;;;;;;2.80;2.25;;;2.10;99.90;;;;;;5044134;28;20666;-71
2023/04/04 05:18:22;;;;;;;6.78;3.05;;;2.00;99.40;;;;;;5041847;28;20287;-72
2023/04/04 05:20:53;;;;;;;5.22;2.85;;;2.10;99.40;;;;;;5043383;28;20203;-69
2023/04/04 05:23:28;;;;;;;7.72;3.65;;;2.10;99.30;;;;;;5038098;28;20223;-70
2023/04/04 05:25:56;;;;;;;8.77;5.05;;;2.10;99.00;;;;;;5039808;28;20578;-72
2023/04/04 05:28:28;;;;;;;11.00;3.13;;;2.10;98.80;;;;;;5050508;28;20304;-69
2023/04/04 05:30:55;;;;;;;5.07;2.60;;;2.20;98.80;;;;;;5034505;28;20200;-70
2023/04/04 05:33:26;;;;;;;5.68;2.67;;;2.20;99.00;;;;;;5038237;28;20224;-71
2023/04/04 05:36:10;;;;;;;10.57;3.63;;;2.30;98.80;;;;;;5044554;28;20196;-71
2023/04/04 05:38:39;;;;;;;2.65;1.90;;;2.30;98.70;;;;;;5037049;28;20204;-72
2023/04/04 05:41:08;;;;;;;13.90;2.70;;;2.40;98.70;;;;;;5035623;28;20291;-69
2023/04/04 05:43:36;;;;;;;6.13;2.05;;;2.50;98.40;;;;;;5036437;28;20231;-70
2023/04/04 05:46:03;;;;;;;6.18;3.00;;;2.60;97.70;;;;;;5040759;28;20286;-70
2023/04/04 05:48:30;;;;;;;4.30;2.70;;;2.80;97.50;;;;;;5037709;28;20252;-71
2023/04/04 05:50:57;;;;;;;7.40;4.30;;;2.90;97.10;;;;;;5040844;28;20223;-72
2023/04/04 05:53:24;;;;;;;6.00;2.83;;;3.10;96.90;;;;;;5042356;28;20325;-73
2023/04/04 05:55:54;;;;;;;6.13;3.00;;;3.20;96.40;;;;;;5039695;28;20282;-72
2023/04/04 05:58:21;;;;;;;6.10;3.05;;;3.40;96.20;;;;;;5049023;28;20209;-72
2023/04/04 06:00:48;;;;;;;6.38;2.40;;;3.50;95.70;;;;;;5039431;28;20223;-72
2023/04/04 06:03:15;;;;;;;5.47;2.90;;;3.60;95.50;;;;;;5040399;28;20303;-73
2023/04/04 06:05:43;;;;;;;4.60;3.03;;;3.70;95.60;;;;;;5043601;28;20207;-72
2023/04/04 06:08:10;;;;;;;3.40;2.78;;;3.80;95.30;;;;;;5039265;28;20258;-71
2023/04/04 06:10:37;;;;;;;6.97;2.83;;;4.00;95.30;;;;;;5036154;28;20560;-72
2023/04/04 06:13:05;;;;;;;5.10;2.95;;;4.50;95.00;;;;;;5042016;28;20259;-72
2023/04/04 06:15:32;;;;;;;9.10;4.50;;;5.30;94.60;;;;;;5039866;28;20299;-71
2023/04/04 06:17:59;;;;;;;11.55;4.10;;;6.20;92.90;;;;;;5039830;28;20289;-72
2023/04/04 06:20:26;;;;;;;4.30;3.10;;;6.50;91.80;;;;;;5035883;28;20484;-71
2023/04/04 06:22:53;;;;;;;5.80;3.15;;;7.10;91.10;;;;;;5034294;28;20219;-71
2023/04/04 06:25:20;;;;;;;4.90;3.00;;;7.40;90.20;;;;;;5036299;28;20238;-72
2023/04/04 06:27:47;;;;;;;4.60;2.50;;;8.10;88.50;;;;;;5040907;28;20209;-73
2023/04/04 06:30:17;;;;;;;5.50;2.58;;;9.00;86.80;;;;;;5044902;28;20201;-72
2023/04/04 06:32:44;;;;;;;4.85;3.17;;;10.00;82.10;;;;;;5042852;28;20287;-72
2023/04/04 06:35:10;;;;;;;3.13;2.33;;;10.90;79.70;;;;;;5039485;28;20272;-71
2023/04/04 06:37:37;;;;;;;6.00;3.15;;;11.60;76.20;;;;;;5042517;28;20230;-72
2023/04/04 06:40:05;;;;;;;5.22;2.65;;;12.60;73.30;;;;;;5036010;28;20210;-72
2023/04/04 06:42:32;;;;;;;6.00;3.00;;;12.90;71.10;;;;;;5041794;28;20300;-71
2023/04/04 06:44:59;;;;;;;10.02;4.40;;;13.70;69.00;;;;;;5047697;28;20203;-73
2023/04/04 06:47:27;;;;;;;4.95;3.70;;;13.90;67.10;;;;;;5043754;28;20232;-72
2023/04/04 06:49:54;;;;;;;9.65;3.53;;;14.00;66.30;;;;;;5045394;28;20708;-73
2023/04/04 06:52:22;;;;;;;6.65;2.78;;;14.50;65.30;;;;;;5048873;28;20306;-71
2023/04/04 06:54:50;;;;;;;3.65;3.20;;;14.90;63.80;;;;;;5048178;28;20754;-73
2023/04/04 06:57:18;;;;;;;6.05;3.03;;;14.70;63.00;;;;;;5047285;28;20204;-72
2023/04/04 06:59:45;;;;;;;7.75;3.40;;;15.10;62.20;;;;;;5049866;28;20215;-73
2023/04/04 07:02:12;;;;;;;5.63;3.30;;;15.80;61.80;;;;;;5044294;28;20196;-73
2023/04/04 07:04:40;;;;;;;5.20;4.17;;;16.60;58.90;;;;;;5041495;28;20449;-73
2023/04/04 07:07:07;;;;;;;7.77;3.47;;;16.60;58.20;;;;;;5048705;28;20476;-73
2023/04/04 07:09:35;;;;;;;8.20;3.53;;;16.40;57.50;;;;;;5041226;28;20534;-73
2023/04/04 07:12:02;;;;;;;4.53;2.47;;;16.80;57.90;;;;;;5047015;28;20466;-70
2023/04/04 07:14:29;;;;;;;4.90;3.20;;;16.50;56.50;;;;;;5042134;28;21104;-72
2023/04/04 07:16:57;;;;;;;8.20;4.03;;;16.30;56.90;;;;;;5038758;28;20541;-72
2023/04/04 07:19:27;;;;;;;6.40;3.13;;;16.30;56.90;;;;;;5047192;28;20923;-73
2023/04/04 07:21:56;;;;;;;4.47;3.37;;;16.70;56.50;;;;;;5042814;28;20451;-72
2023/04/04 07:24:23;;;;;;;5.53;3.20;;;16.70;56.30;;;;;;5049834;28;20454;-72
2023/04/04 07:26:50;;;;;;;4.97;3.10;;;16.60;55.70;;;;;;5043262;28;20985;-72
2023/04/04 07:29:17;;;;;;;3.90;2.80;;;16.40;56.30;;;;;;5043248;28;20485;-73
2023/04/04 07:31:43;;;;;;;4.97;3.40;;;16.50;56.20;;;;;;5048868;28;20459;-73
2023/04/04 07:34:11;;;;;;;5.20;2.90;;;16.00;56.50;;;;;;5049945;28;20517;-71
2023/04/04 07:36:38;;;;;;;5.47;4.20;;;16.20;56.50;;;;;;5040233;28;20293;-72
2023/04/04 07:39:07;;;;;;;3.60;3.25;;;15.80;55.90;;;;;;5043708;28;20460;-74
2023/04/04 07:41:34;;;;;;;9.60;3.72;;;14.70;56.20;;;;;;5045891;28;20212;-73
2023/04/04 07:44:01;;;;;;;4.70;3.45;;;14.90;57.30;;;;;;5041653;28;20256;-73
2023/04/04 07:46:28;;;;;;;5.90;3.85;;;14.70;57.00;;;;;;5043450;28;20323;-71
2023/04/04 07:48:55;;;;;;;5.05;3.30;;;14.10;58.00;;;;;;5048215;28;20256;-71
2023/04/04 07:51:28;;;;;;;5.10;3.55;;;14.50;58.70;;;;;;5039763;28;20200;-70
2023/04/04 07:53:55;;;;;;;4.53;3.38;;;14.40;58.80;;;;;;5042264;28;20582;-70
2023/04/04 07:56:23;;;;;;;10.40;4.50;;;15.10;58.40;;;;;;5045072;28;20567;-71
2023/04/04 07:58:50;;;;;;;6.80;4.18;;;14.90;57.90;;;;;;5038989;28;20205;-72
2023/04/04 08:01:17;;;;;;;7.07;4.17;;;15.40;57.60;;;;;;5040198;28;20210;-72
2023/04/04 08:03:44;;;;;;;8.57;3.27;;;15.60;57.30;;;;;;5040656;28;20493;-68
2023/04/04 08:06:11;;;;;;;7.77;3.23;;;15.90;56.60;;;;;;5048796;28;20479;-72
2023/04/04 08:08:39;;;;;;;4.40;2.80;;;16.40;56.00;;;;;;5041178;28;20482;-73
2023/04/04 08:11:06;;;;;;;4.63;2.90;;;17.00;55.60;;;;;;5048211;28;20442;-70
2023/04/04 08:13:34;;;;;;;4.90;3.30;;;17.80;55.10;;;;;;5042302;28;21069;-70
2023/04/04 08:16:01;;;;;;;8.23;3.07;;;17.90;55.10;;;;;;5045152;28;20545;-71
2023/04/04 08:18:28;;;;;;;11.00;2.83;;;17.90;55.40;;;;;;5043235;28;20508;-71
2023/04/04 08:20:55;;;;;;;4.07;2.93;;;17.90;54.10;;;;;;5037054;28;20543;-71
2023/04/04 08:23:22;;;;;;;5.10;3.30;;;18.10;54.40;;;;;;5039721;28;20477;-72
2023/04/04 08:25:50;;;;;;;4.90;3.60;;;18.70;55.00;;;;;;5045857;28;20822;-72
2023/04/04 08:28:17;;;;;;;8.50;3.53;;;19.10;54.10;;;;;;5051158;28;20541;-71
2023/04/04 08:30:46;;;;;;;5.50;2.70;;;19.70;53.20;;;;;;5042449;28;20450;-73
2023/04/04 08:33:12;;;;;;;7.13;2.70;;;19.00;51.40;;;;;;5037401;28;20496;-73
2023/04/04 08:35:40;;;;;;;6.77;3.03;;;18.80;52.40;;;;;;5045585;28;20482;-72
2023/04/04 08:38:07;;;;;;;6.97;2.87;;;18.70;52.30;;;;;;5045769;28;20459;-72
2023/04/04 08:40:34;;;;;;;3.93;2.67;;;18.50;51.50;;;;;;5041103;28;20558;-72
2023/04/04 08:43:04;;;;;;;6.60;3.20;;;18.50;52.40;;;;;;5045645;28;20477;-71
2023/04/04 08:45:32;;;;;;;5.63;2.77;;;19.00;52.40;;;;;;5040166;28;20495;-72
2023/04/04 08:48:02;;;;;;;3.20;2.90;;;18.80;52.70;;;;;;5042545;28;20514;-72
2023/04/04 08:50:30;;;;;;;4.37;2.97;;;18.90;52.20;;;;;;5044180;28;20541;-72
2023/04/04 08:53:00;;;;;;;4.57;3.43;;;18.70;51.60;;;;;;5037882;28;20477;-72
2023/04/04 08:55:27;;;;;;;5.07;3.03;;;18.90;52.30;;;;;;5041917;28;20485;-72
2023/04/04 08:57:54;;;;;;;4.10;2.70;;;19.00;51.70;;;;;;5043756;28;20544;-74
2023/04/04 09:00:22;;;;;;;4.97;2.80;;;19.80;50.60;;;;;;5047229;28;20482;-75
2023/04/04 09:02:57;;;;;;;4.93;2.67;;;19.70;49.60;;;;;;5041939;28;21023;-73
2023/04/04 09:05:25;;;;;;;8.77;3.37;;;19.20;50.70;;;;;;5019489;28;20447;-71
2023/04/04 09:07:54;;;;;;;9.63;3.53;;;18.50;50.50;;;;;;5044102;28;20456;-72
2023/04/04 09:10:22;;;;;;;9.00;3.20;;;18.40;51.30;;;;;;5041078;28;20522;-72
2023/04/04 09:12:51;;;;;;;4.27;2.70;;;18.20;50.10;;;;;;5042067;28;20467;-73
2023/04/04 09:15:18;;;;;;;4.67;2.87;;;18.70;51.20;;;;;;5044422;28;20474;-73
2023/04/04 09:17:45;;;;;;;6.87;3.47;;;18.80;50.10;;;;;;5037519;28;20534;-72
2023/04/04 09:20:35;;;;;;;7.70;3.00;;;18.30;49.70;;;;;;5042478;28;20458;-73
2023/04/04 09:23:05;;;;;;;2.93;2.30;;;18.30;51.20;;;;;;5045615;28;20872;-72
2023/04/04 09:25:32;;;;;;;2.63;2.43;;;18.70;50.40;;;;;;5039326;28;20449;-72
2023/04/04 09:28:01;;;;;;;5.37;2.97;;;18.40;49.00;;;;;;5045213;28;20509;-74
2023/04/04 09:30:28;;;;;;;4.67;3.43;;;18.20;49.30;;;;;;5043784;28;20446;-73
2023/04/04 09:32:57;;;;;;;3.70;2.30;;;18.70;50.30;;;;;;5038194;28;20485;-73
2023/04/04 09:35:27;;;;;;;14.20;6.47;;;19.00;50.60;;;;;;5041988;28;20466;-72
2023/04/04 09:37:58;;;;;;;3.53;2.90;;;19.20;48.80;;;;;;5037198;28;20449;-73
2023/04/04 09:40:29;;;;;;;4.03;3.00;;;18.80;49.00;;;;;;5034737;28;20455;-73
2023/04/04 09:43:06;;;;;;;6.67;2.83;;;18.70;50.80;;;;;;5047245;28;20465;-73
2023/04/04 09:45:36;;;;;;;5.40;2.97;;;18.80;48.50;;;;;;5023711;28;20442;-71
2023/04/04 09:48:07;;;;;;;5.53;2.80;;;19.10;48.70;;;;;;5037838;28;20465;-72
2023/04/04 09:50:35;;;;;;;8.63;2.83;;;18.70;48.00;;;;;;5038934;28;20929;-71
2023/04/04 09:56:13;;;;;;;4.43;2.70;;;16.10;49.50;;;;;;5028114;28;20501;-72
2023/04/04 09:58:52;;;;;;;5.17;2.87;;;16.50;51.90;;;;;;5043793;28;20442;-71
2023/04/04 10:01:27;;;;;;;4.73;2.67;;;16.20;51.70;;;;;;5044909;28;20461;-73
2023/04/04 10:04:07;;;;;;;3.00;2.70;;;16.20;49.90;;;;;;5028714;28;20500;-72
2023/04/04 10:06:49;;;;;;;4.00;2.83;;;15.90;51.00;;;;;;5043578;28;20453;-71
2023/04/04 10:09:28;;;;;;;4.33;3.20;;;15.90;51.50;;;;;;5040660;28;20446;-74
2023/04/04 10:12:12;;;;;;;4.77;2.63;;;16.40;51.20;;;;;;5022672;28;20442;-72
2023/04/04 10:14:39;;;;;;;3.90;2.90;;;16.60;51.40;;;;;;5025344;28;20482;-71
2023/04/04 10:17:13;;;;;;;5.30;2.70;;;16.40;50.20;;;;;;5044034;28;20473;-71
2023/04/04 10:19:49;;;;;;;5.50;2.87;;;15.90;50.10;;;;;;5052406;28;20541;-74
2023/04/04 10:22:17;;;;;;;4.30;3.17;;;15.70;51.40;;;;;;5036819;28;20990;-73
2023/04/04 10:24:52;;;;;;;4.55;3.03;;;15.90;51.70;;;;;;5044908;28;20543;-73
2023/04/04 10:27:24;;;;;;;4.35;3.22;;;15.30;49.20;;;;;;5043448;28;20213;-73
2023/04/04 10:29:54;;;;;;;3.50;2.90;;;14.20;50.00;;;;;;5039399;28;20197;-72
2023/04/04 10:32:24;;;;;;;5.28;3.60;;;14.00;53.10;;;;;;5043182;28;20227;-73
2023/04/04 10:35:06;;;;;;;4.85;3.50;;;14.10;54.00;;;;;;5049251;28;20273;-72
2023/04/04 10:37:40;;;;;;;8.85;3.70;;;14.20;55.20;;;;;;5032457;28;20219;-72
2023/04/04 10:40:16;;;;;;;4.15;3.05;;;14.60;54.10;;;;;;5046869;28;20245;-71
2023/04/04 10:42:46;;;;;;;3.63;3.15;;;13.90;52.70;;;;;;5047106;28;20227;-72
2023/04/04 10:45:34;;;;;;;4.35;3.25;;;12.80;53.00;;;;;;5048526;28;20213;-72
2023/04/04 10:48:11;;;;;;;7.53;3.65;;;13.00;54.90;;;;;;5040672;28;20235;-74
2023/04/04 10:50:52;;;;;;;3.63;3.10;;;13.00;55.80;;;;;;5045434;28;20218;-73
2023/04/04 10:53:30;;;;;;;6.30;3.05;;;13.00;56.20;;;;;;5044710;28;20322;-71
2023/04/04 10:56:00;;;;;;;5.55;3.30;;;13.00;57.40;;;;;;5039723;28;20234;-74
2023/04/04 10:58:32;;;;;;;5.50;3.00;;;12.90;56.30;;;;;;5045165;28;20294;-72
2023/04/04 11:01:02;;;;;;;7.85;4.35;;;13.10;55.00;;;;;;5046355;28;20204;-73
2023/04/04 11:04:10;;;;;;;4.57;2.88;;;12.90;56.90;;;;;;5041191;28;20222;-71
2023/04/04 11:07:16;;;;;;;4.22;3.47;;;13.00;55.20;;;;;;5041388;28;20301;-71
2023/04/04 11:10:00;;;;;;;5.53;3.63;;;12.60;56.50;;;;;;5036731;28;20207;-71
2023/04/04 11:12:35;;;;;;;8.50;4.95;;;12.10;57.60;;;;;;5044564;28;20234;-71
2023/04/04 11:15:21;;;;;;;5.85;4.18;;;12.30;58.20;;;;;;5036222;28;20604;-70
2023/04/04 11:18:06;;;;;;;5.00;3.38;;;11.70;57.80;;;;;;5023969;28;20235;-69
2023/04/04 11:20:37;;;;;;;8.57;3.30;;;11.70;58.50;;;;;;5042875;28;20216;-69
2023/04/04 11:23:19;;;;;;;6.18;3.47;;;11.80;58.70;;;;;;5045271;28;20258;-70
2023/04/04 11:26:02;;;;;;;3.45;3.00;;;12.10;59.60;;;;;;5042174;28;20198;-71
2023/04/04 11:28:45;;;;;;;4.15;3.30;;;12.30;59.70;;;;;;5045327;28;20211;-71
2023/04/04 11:31:41;;;;;;;6.32;3.90;;;11.50;57.50;;;;;;5050456;28;20202;-72
2023/04/04 11:34:16;;;;;;;7.55;4.15;;;11.50;58.00;;;;;;5023963;28;20225;-70
2023/04/04 11:36:53;;;;;;;7.28;3.90;;;11.60;57.80;;;;;;5044726;28;20335;-71
2023/04/04 11:39:27;;;;;;;6.32;4.25;;;11.60;57.50;;;;;;5042816;28;20691;-70
2023/04/04 11:42:02;;;;;;;4.65;4.03;;;11.80;57.50;;;;;;5046242;28;20229;-72
2023/04/04 11:44:42;;;;;;;5.53;4.00;;;11.20;57.60;;;;;;5051745;28;20248;-73
2023/04/04 11:47:14;;;;;;;4.25;3.72;;;11.20;57.90;;;;;;5048188;28;20209;-72
2023/04/04 11:49:51;;;;;;;5.18;3.40;;;11.00;57.90;;;;;;5046394;28;20209;-73
2023/04/04 11:52:28;;;;;;;4.90;3.00;;;11.00;58.10;;;;;;5046734;28;20227;-74
2023/04/04 11:54:59;;;;;;;4.88;3.60;;;11.10;57.90;;;;;;5043557;28;20227;-72
2023/04/04 11:57:27;;;;;;;4.38;2.92;;;11.00;58.20;;;;;;5050957;28;20201;-70
2023/04/04 12:00:07;;;;;;;6.85;3.47;;;11.00;58.30;;;;;;5046306;28;20202;-71
2023/04/04 12:02:42;;;;;;;7.35;3.47;;;10.90;58.70;;;;;;5046314;28;20711;-71
2023/04/04 12:05:13;;;;;;;7.85;3.92;;;10.80;58.30;;;;;;5050496;28;20198;-70
2023/04/04 12:07:45;;;;;;;5.35;3.60;;;10.80;58.80;;;;;;5041537;28;20204;-71
2023/04/04 12:10:15;;;;;;;4.50;3.30;;;10.70;58.90;;;;;;5043994;28;20200;-71
2023/04/04 12:12:43;;;;;;;4.53;3.97;;;10.60;59.30;;;;;;5047901;28;20693;-71
2023/04/04 12:15:14;;;;;;;5.45;3.85;;;10.80;59.50;;;;;;5046701;28;20234;-70
2023/04/04 12:17:47;;;;;;;5.22;4.03;;;11.00;59.80;;;;;;5052968;28;20219;-71
2023/04/04 12:20:17;;;;;;;7.05;4.68;;;11.30;58.80;;;;;;5040906;28;20636;-71
2023/04/04 12:23:01;;;;;;;4.60;3.20;;;11.50;58.90;;;;;;5041185;28;20233;-72
2023/04/04 12:25:34;;;;;;;12.48;3.15;;;11.20;58.20;;;;;;5049620;28;20205;-71
2023/04/04 12:28:12;;;;;;;7.90;4.35;;;11.50;59.00;;;;;;5042409;28;20205;-70
2023/04/04 12:30:42;;;;;;;6.13;4.00;;;11.70;59.00;;;;;;5036408;28;20202;-74
2023/04/04 12:33:21;;;;;;;4.32;3.90;;;11.90;58.20;;;;;;5042358;28;20232;-73
2023/04/04 12:35:58;;;;;;;4.38;3.60;;;11.90;57.40;;;;;;5028691;28;20210;-72
2023/04/04 12:38:31;;;;;;;5.68;3.72;;;12.00;57.40;;;;;;5023153;28;20202;-72
2023/04/04 12:41:05;;;;;;;11.18;3.90;;;11.90;57.70;;;;;;5052080;28;20303;-73
2023/04/04 12:43:37;;;;;;;4.95;3.83;;;11.70;57.70;;;;;;5041703;28;20221;-71
2023/04/04 12:46:11;;;;;;;4.18;3.72;;;11.60;57.90;;;;;;5049364;28;20196;-72
2023/04/04 12:48:49;;;;;;;4.65;3.80;;;11.20;58.40;;;;;;5043550;28;20667;-71
2023/04/04 12:51:34;;;;;;;7.85;4.30;;;11.30;58.70;;;;;;5048518;28;20202;-71
2023/04/04 12:54:01;;;;;;;7.47;4.20;;;11.20;58.60;;;;;;5026164;28;20344;-70
2023/04/04 12:56:38;;;;;;;5.75;4.43;;;11.20;58.80;;;;;;5048761;28;20220;-71
2023/04/04 12:59:14;;;;;;;4.45;3.50;;;11.10;58.70;;;;;;5047829;28;20263;-72
2023/04/04 13:01:50;;;;;;;4.43;3.72;;;11.10;58.80;;;;;;5039169;28;20210;-71
2023/04/04 13:04:18;;;;;;;4.70;3.40;;;11.20;58.40;;;;;;5041732;28;20224;-71
2023/04/04 13:06:46;;;;;;;7.45;3.55;;;11.20;58.40;;;;;;5049547;28;20213;-71
2023/04/04 13:09:17;;;;;;;6.32;4.25;;;11.30;59.80;;;;;;5040208;28;20678;-70
2023/04/04 13:11:58;;;;;;;5.13;3.72;;;11.70;59.50;;;;;;5049982;28;20244;-71
2023/04/04 13:14:25;;;;;;;5.28;3.78;;;11.90;59.10;;;;;;5052217;28;20202;-71
2023/04/04 13:17:08;;;;;;;5.53;3.92;;;12.20;58.60;;;;;;5050525;28;20314;-71
2023/04/04 13:19:35;;;;;;;5.43;3.75;;;12.30;57.40;;;;;;5046480;28;20285;-71
2023/04/04 13:22:02;;;;;;;6.53;4.15;;;12.00;57.40;;;;;;5043909;28;20203;-71
2023/04/04 13:24:29;;;;;;;6.47;4.55;;;11.50;57.90;;;;;;5051284;28;20211;-71
2023/04/04 13:26:56;;;;;;;8.05;3.80;;;11.30;59.00;;;;;;5037309;28;20203;-71
2023/04/04 13:29:23;;;;;;;5.78;3.65;;;11.50;59.60;;;;;;5042632;28;21342;-71